sensor_id;sensor_type;location;lat;lon;timestamp;P1;durP1;ratioP1;P2;durP2;ratioP2
45476;SDS011;31958;51.756;-2.556;2023-02-21T00:01:24;10.90;;;3.17;;
45476;SDS011;31958;51.756;-2.556;2023-02-21T00:04:08;5.70;;;3.03;;
45476;SDS011;31958;51.756;-2.556;2023-02-21T00:06:52;8.77;;;3.83;;
45476;SDS011;31958;51.756;-2.556;2023-02-21T00:09:37;8.32;;;3.63;;
45476;SDS011;31958;51.756;-2.556;2023-02-21T00:12:22;11.50;;;3.20;;
45476;SDS011;31958;51.756;-2.556;2023-02-21T00:15:06;11.70;;;3.72;;
45476;SDS011;31958;51.756;-2.556;2023-02-21T00:20:34;8.67;;;3.97;;
45476;SDS011;31958;51.756;-2.556;2023-02-21T00:23:18;10.02;;;4.00;;
45476;SDS011;31958;51.756;-2.556;2023-02-21T00:26:02;10.80;;;4.68;;
45476;SDS011;31958;51.756;-2.556;2023-02-21T00:28:46;9.63;;;4.65;;
45476;SDS011;31958;51.756;-2.556;2023-02-21T00:31:30;14.38;;;4.80;;
45476;SDS011;31958;51.756;-2.556;2023-02-21T00:34:13;16.30;;;5.85;;
45476;SDS011;31958;51.756;-2.556;2023-02-21T00:36:57;11.73;;;4.90;;
45476;SDS011;31958;51.756;-2.556;2023-02-21T00:39:41;13.38;;;5.90;;
45476;SDS011;31958;51.756;-2.556;2023-02-21T00:42:25;15.10;;;4.82;;
45476;SDS011;31958;51.756;-2.556;2023-02-21T00:45:09;12.27;;;4.85;;
45476;SDS011;31958;51.756;-2.556;2023-02-21T00:47:53;15.63;;;5.13;;
45476;SDS011;31958;51.756;-2.556;2023-02-21T00:50:37;14.65;;;5.15;;
45476;SDS011;31958;51.756;-2.556;2023-02-21T00:53:23;9.48;;;3.92;;
45476;SDS011;31958;51.756;-2.556;2023-02-21T00:56:07;9.55;;;3.85;;
45476;SDS011;31958;51.756;-2.556;2023-02-21T00:58:51;6.38;;;3.22;;
45476;SDS011;31958;51.756;-2.556;2023-02-21T01:01:35;8.25;;;3.40;;
45476;SDS011;31958;51.756;-2.556;2023-02-21T01:04:19;8.02;;;3.85;;
45476;SDS011;31958;51.756;-2.556;2023-02-21T01:07:03;9.45;;;3.70;;
45476;SDS011;31958;51.756;-2.556;2023-02-21T01:09:47;7.82;;;3.28;;
45476;SDS011;31958;51.756;-2.556;2023-02-21T01:12:31;6.97;;;2.45;;
45476;SDS011;31958;51.756;-2.556;2023-02-21T01:15:15;7.25;;;3.08;;
45476;SDS011;31958;51.756;-2.556;2023-02-21T01:17:59;9.48;;;3.17;;
45476;SDS011;31958;51.756;-2.556;2023-02-21T01:20:43;6.38;;;3.00;;
45476;SDS011;31958;51.756;-2.556;2023-02-21T01:23:27;7.25;;;3.08;;
45476;SDS011;31958;51.756;-2.556;2023-02-21T01:26:11;9.80;;;2.78;;
45476;SDS011;31958;51.756;-2.556;2023-02-21T01:28:55;4.43;;;2.22;;
45476;SDS011;31958;51.756;-2.556;2023-02-21T01:31:39;7.72;;;2.97;;
45476;SDS011;31958;51.756;-2.556;2023-02-21T01:34:23;8.63;;;2.90;;
45476;SDS011;31958;51.756;-2.556;2023-02-21T01:37:06;7.70;;;2.53;;
45476;SDS011;31958;51.756;-2.556;2023-02-21T01:39:50;5.43;;;2.95;;
45476;SDS011;31958;51.756;-2.556;2023-02-21T01:42:34;6.65;;;3.03;;
45476;SDS011;31958;51.756;-2.556;2023-02-21T01:48:10;8.07;;;4.00;;
45476;SDS011;31958;51.756;-2.556;2023-02-21T01:50:57;7.90;;;3.28;;
45476;SDS011;31958;51.756;-2.556;2023-02-21T01:53:41;16.08;;;5.53;;
45476;SDS011;31958;51.756;-2.556;2023-02-21T01:56:26;11.85;;;4.97;;
45476;SDS011;31958;51.756;-2.556;2023-02-21T01:59:10;12.10;;;3.92;;
45476;SDS011;31958;51.756;-2.556;2023-02-21T02:05:07;6.25;;;3.30;;
45476;SDS011;31958;51.756;-2.556;2023-02-21T02:07:52;12.10;;;4.00;;
45476;SDS011;31958;51.756;-2.556;2023-02-21T02:10:37;7.88;;;3.83;;
45476;SDS011;31958;51.756;-2.556;2023-02-21T02:13:28;9.00;;;4.35;;
45476;SDS011;31958;51.756;-2.556;2023-02-21T02:18:38;10.13;;;4.93;;
45476;SDS011;31958;51.756;-2.556;2023-02-21T02:24:05;14.38;;;3.75;;
45476;SDS011;31958;51.756;-2.556;2023-02-21T02:32:36;6.80;;;2.33;;
45476;SDS011;31958;51.756;-2.556;2023-02-21T02:40:24;10.85;;;2.40;;
45476;SDS011;31958;51.756;-2.556;2023-02-21T02:50:59;7.18;;;3.20;;
45476;SDS011;31958;51.756;-2.556;2023-02-21T02:53:28;5.25;;;2.63;;
45476;SDS011;31958;51.756;-2.556;2023-02-21T02:55:55;6.85;;;2.90;;
45476;SDS011;31958;51.756;-2.556;2023-02-21T02:58:23;9.15;;;3.13;;
45476;SDS011;31958;51.756;-2.556;2023-02-21T03:00:57;7.22;;;2.95;;
45476;SDS011;31958;51.756;-2.556;2023-02-21T03:06:25;5.75;;;2.90;;
45476;SDS011;31958;51.756;-2.556;2023-02-21T03:11:30;5.85;;;2.65;;
45476;SDS011;31958;51.756;-2.556;2023-02-21T03:16:53;4.40;;;2.20;;
45476;SDS011;31958;51.756;-2.556;2023-02-21T03:19:23;5.25;;;2.50;;
45476;SDS011;31958;51.756;-2.556;2023-02-21T03:21:51;4.90;;;2.90;;
45476;SDS011;31958;51.756;-2.556;2023-02-21T03:24:20;5.18;;;2.63;;
45476;SDS011;31958;51.756;-2.556;2023-02-21T03:26:48;6.60;;;2.80;;
45476;SDS011;31958;51.756;-2.556;2023-02-21T03:29:14;6.47;;;2.63;;
45476;SDS011;31958;51.756;-2.556;2023-02-21T03:31:43;5.10;;;2.70;;
45476;SDS011;31958;51.756;-2.556;2023-02-21T03:34:10;4.20;;;2.30;;
45476;SDS011;31958;51.756;-2.556;2023-02-21T03:36:36;5.78;;;2.20;;
45476;SDS011;31958;51.756;-2.556;2023-02-21T03:39:02;6.60;;;2.53;;
45476;SDS011;31958;51.756;-2.556;2023-02-21T03:41:28;4.68;;;2.30;;
45476;SDS011;31958;51.756;-2.556;2023-02-21T03:43:53;4.10;;;2.47;;
45476;SDS011;31958;51.756;-2.556;2023-02-21T03:46:19;8.23;;;2.83;;
45476;SDS011;31958;51.756;-2.556;2023-02-21T03:48:44;7.30;;;3.08;;
45476;SDS011;31958;51.756;-2.556;2023-02-21T03:51:10;8.02;;;4.15;;
45476;SDS011;31958;51.756;-2.556;2023-02-21T03:53:35;5.43;;;2.90;;
45476;SDS011;31958;51.756;-2.556;2023-02-21T03:56:01;5.05;;;2.85;;
45476;SDS011;31958;51.756;-2.556;2023-02-21T03:58:26;6.68;;;2.53;;
45476;SDS011;31958;51.756;-2.556;2023-02-21T04:00:52;6.10;;;3.80;;
45476;SDS011;31958;51.756;-2.556;2023-02-21T04:03:18;4.70;;;3.20;;
45476;SDS011;31958;51.756;-2.556;2023-02-21T04:05:44;9.88;;;5.00;;
45476;SDS011;31958;51.756;-2.556;2023-02-21T04:08:09;11.60;;;4.72;;
45476;SDS011;31958;51.756;-2.556;2023-02-21T04:10:35;12.07;;;5.50;;
45476;SDS011;31958;51.756;-2.556;2023-02-21T04:13:00;10.35;;;5.22;;
45476;SDS011;31958;51.756;-2.556;2023-02-21T04:15:26;11.15;;;5.65;;
45476;SDS011;31958;51.756;-2.556;2023-02-21T04:17:51;12.13;;;5.80;;
45476;SDS011;31958;51.756;-2.556;2023-02-21T04:20:16;11.80;;;5.40;;
45476;SDS011;31958;51.756;-2.556;2023-02-21T04:22:42;13.85;;;5.97;;
45476;SDS011;31958;51.756;-2.556;2023-02-21T04:25:07;11.43;;;5.40;;
45476;SDS011;31958;51.756;-2.556;2023-02-21T04:27:33;8.38;;;4.78;;
45476;SDS011;31958;51.756;-2.556;2023-02-21T04:29:59;14.48;;;6.60;;
45476;SDS011;31958;51.756;-2.556;2023-02-21T04:32:25;14.23;;;6.47;;
45476;SDS011;31958;51.756;-2.556;2023-02-21T04:34:51;12.68;;;6.43;;
45476;SDS011;31958;51.756;-2.556;2023-02-21T04:37:16;16.08;;;5.68;;
45476;SDS011;31958;51.756;-2.556;2023-02-21T04:39:42;11.43;;;5.75;;
45476;SDS011;31958;51.756;-2.556;2023-02-21T04:42:08;10.60;;;4.45;;
45476;SDS011;31958;51.756;-2.556;2023-02-21T04:44:33;14.63;;;5.68;;
45476;SDS011;31958;51.756;-2.556;2023-02-21T04:46:59;11.10;;;5.80;;
45476;SDS011;31958;51.756;-2.556;2023-02-21T04:49:24;17.27;;;7.20;;
45476;SDS011;31958;51.756;-2.556;2023-02-21T04:51:51;16.08;;;6.95;;
45476;SDS011;31958;51.756;-2.556;2023-02-21T04:54:17;14.30;;;7.00;;
45476;SDS011;31958;51.756;-2.556;2023-02-21T04:56:43;15.95;;;6.47;;
45476;SDS011;31958;51.756;-2.556;2023-02-21T04:59:09;17.63;;;7.55;;
45476;SDS011;31958;51.756;-2.556;2023-02-21T05:01:34;11.70;;;5.22;;
45476;SDS011;31958;51.756;-2.556;2023-02-21T05:04:00;8.73;;;4.80;;
45476;SDS011;31958;51.756;-2.556;2023-02-21T05:06:26;13.10;;;6.63;;
45476;SDS011;31958;51.756;-2.556;2023-02-21T05:08:53;12.45;;;4.82;;
45476;SDS011;31958;51.756;-2.556;2023-02-21T05:11:19;19.73;;;9.55;;
45476;SDS011;31958;51.756;-2.556;2023-02-21T05:13:46;16.45;;;8.27;;
45476;SDS011;31958;51.756;-2.556;2023-02-21T05:16:11;19.27;;;9.63;;
45476;SDS011;31958;51.756;-2.556;2023-02-21T05:18:37;17.35;;;9.30;;
45476;SDS011;31958;51.756;-2.556;2023-02-21T05:21:06;18.05;;;8.50;;
45476;SDS011;31958;51.756;-2.556;2023-02-21T05:23:32;18.95;;;9.75;;
45476;SDS011;31958;51.756;-2.556;2023-02-21T05:28:25;18.98;;;9.32;;
45476;SDS011;31958;51.756;-2.556;2023-02-21T05:30:51;17.98;;;9.10;;
45476;SDS011;31958;51.756;-2.556;2023-02-21T05:33:17;15.20;;;8.15;;
45476;SDS011;31958;51.756;-2.556;2023-02-21T05:35:42;15.85;;;8.32;;
45476;SDS011;31958;51.756;-2.556;2023-02-21T05:38:10;19.38;;;9.20;;
45476;SDS011;31958;51.756;-2.556;2023-02-21T05:40:36;17.40;;;8.70;;
45476;SDS011;31958;51.756;-2.556;2023-02-21T05:43:01;16.88;;;9.00;;
45476;SDS011;31958;51.756;-2.556;2023-02-21T05:45:27;18.35;;;9.70;;
45476;SDS011;31958;51.756;-2.556;2023-02-21T05:47:52;17.08;;;8.80;;
45476;SDS011;31958;51.756;-2.556;2023-02-21T05:50:22;17.23;;;8.60;;
45476;SDS011;31958;51.756;-2.556;2023-02-21T05:52:48;18.63;;;8.65;;
45476;SDS011;31958;51.756;-2.556;2023-02-21T05:55:13;17.27;;;8.23;;
45476;SDS011;31958;51.756;-2.556;2023-02-21T05:57:38;18.20;;;8.93;;
45476;SDS011;31958;51.756;-2.556;2023-02-21T06:00:04;15.70;;;8.75;;
45476;SDS011;31958;51.756;-2.556;2023-02-21T06:02:30;14.48;;;8.40;;
45476;SDS011;31958;51.756;-2.556;2023-02-21T06:04:55;16.45;;;8.50;;
45476;SDS011;31958;51.756;-2.556;2023-02-21T06:07:21;16.58;;;8.35;;
45476;SDS011;31958;51.756;-2.556;2023-02-21T06:09:46;18.10;;;9.52;;
45476;SDS011;31958;51.756;-2.556;2023-02-21T06:12:12;16.80;;;9.68;;
45476;SDS011;31958;51.756;-2.556;2023-02-21T06:14:37;19.08;;;10.02;;
45476;SDS011;31958;51.756;-2.556;2023-02-21T06:17:03;18.45;;;10.13;;
45476;SDS011;31958;51.756;-2.556;2023-02-21T06:19:28;22.95;;;11.10;;
45476;SDS011;31958;51.756;-2.556;2023-02-21T06:21:53;21.60;;;10.85;;
45476;SDS011;31958;51.756;-2.556;2023-02-21T06:24:19;19.02;;;9.63;;
45476;SDS011;31958;51.756;-2.556;2023-02-21T06:26:44;17.10;;;9.52;;
45476;SDS011;31958;51.756;-2.556;2023-02-21T06:29:10;20.55;;;10.05;;
45476;SDS011;31958;51.756;-2.556;2023-02-21T06:31:36;19.42;;;10.48;;
45476;SDS011;31958;51.756;-2.556;2023-02-21T06:34:01;22.80;;;9.93;;
45476;SDS011;31958;51.756;-2.556;2023-02-21T06:36:27;24.13;;;12.82;;
45476;SDS011;31958;51.756;-2.556;2023-02-21T06:38:54;29.98;;;13.70;;
45476;SDS011;31958;51.756;-2.556;2023-02-21T06:41:21;32.50;;;15.68;;
45476;SDS011;31958;51.756;-2.556;2023-02-21T06:43:48;47.72;;;21.40;;
45476;SDS011;31958;51.756;-2.556;2023-02-21T06:46:21;44.67;;;19.48;;
45476;SDS011;31958;51.756;-2.556;2023-02-21T06:48:49;25.88;;;12.60;;
45476;SDS011;31958;51.756;-2.556;2023-02-21T06:51:15;28.75;;;13.30;;
45476;SDS011;31958;51.756;-2.556;2023-02-21T06:53:41;27.30;;;13.38;;
45476;SDS011;31958;51.756;-2.556;2023-02-21T06:56:07;25.20;;;13.68;;
45476;SDS011;31958;51.756;-2.556;2023-02-21T06:58:33;22.02;;;11.52;;
45476;SDS011;31958;51.756;-2.556;2023-02-21T07:00:59;25.25;;;11.52;;
45476;SDS011;31958;51.756;-2.556;2023-02-21T07:03:24;26.90;;;12.95;;
45476;SDS011;31958;51.756;-2.556;2023-02-21T07:05:50;23.23;;;11.88;;
45476;SDS011;31958;51.756;-2.556;2023-02-21T07:08:15;29.40;;;13.35;;
45476;SDS011;31958;51.756;-2.556;2023-02-21T07:10:41;27.08;;;12.57;;
45476;SDS011;31958;51.756;-2.556;2023-02-21T07:13:06;24.50;;;11.40;;
45476;SDS011;31958;51.756;-2.556;2023-02-21T07:15:31;26.50;;;11.18;;
45476;SDS011;31958;51.756;-2.556;2023-02-21T07:17:57;25.88;;;12.45;;
45476;SDS011;31958;51.756;-2.556;2023-02-21T07:20:22;24.52;;;11.02;;
45476;SDS011;31958;51.756;-2.556;2023-02-21T07:22:48;21.77;;;10.63;;
45476;SDS011;31958;51.756;-2.556;2023-02-21T07:25:19;21.67;;;10.50;;
45476;SDS011;31958;51.756;-2.556;2023-02-21T07:27:47;22.20;;;10.82;;
45476;SDS011;31958;51.756;-2.556;2023-02-21T07:30:14;22.95;;;10.45;;
45476;SDS011;31958;51.756;-2.556;2023-02-21T07:32:40;19.10;;;9.45;;
45476;SDS011;31958;51.756;-2.556;2023-02-21T07:35:05;20.40;;;10.20;;
45476;SDS011;31958;51.756;-2.556;2023-02-21T07:37:31;21.77;;;10.55;;
45476;SDS011;31958;51.756;-2.556;2023-02-21T07:39:56;20.85;;;9.20;;
45476;SDS011;31958;51.756;-2.556;2023-02-21T07:42:22;26.02;;;10.20;;
45476;SDS011;31958;51.756;-2.556;2023-02-21T07:44:47;22.90;;;10.15;;
45476;SDS011;31958;51.756;-2.556;2023-02-21T07:47:13;20.48;;;9.40;;
45476;SDS011;31958;51.756;-2.556;2023-02-21T07:49:39;22.23;;;9.52;;
45476;SDS011;31958;51.756;-2.556;2023-02-21T07:52:05;20.73;;;8.77;;
45476;SDS011;31958;51.756;-2.556;2023-02-21T07:54:31;23.85;;;10.23;;
45476;SDS011;31958;51.756;-2.556;2023-02-21T07:56:56;18.25;;;9.60;;
45476;SDS011;31958;51.756;-2.556;2023-02-21T07:59:22;23.35;;;9.50;;
45476;SDS011;31958;51.756;-2.556;2023-02-21T08:01:48;19.48;;;9.23;;
45476;SDS011;31958;51.756;-2.556;2023-02-21T08:04:13;18.02;;;9.23;;
45476;SDS011;31958;51.756;-2.556;2023-02-21T08:06:39;19.23;;;9.93;;
45476;SDS011;31958;51.756;-2.556;2023-02-21T08:09:04;17.45;;;9.35;;
45476;SDS011;31958;51.756;-2.556;2023-02-21T08:11:31;19.52;;;9.57;;
45476;SDS011;31958;51.756;-2.556;2023-02-21T08:13:58;19.77;;;9.68;;
45476;SDS011;31958;51.756;-2.556;2023-02-21T08:16:23;19.88;;;9.00;;
45476;SDS011;31958;51.756;-2.556;2023-02-21T08:18:49;20.23;;;8.77;;
45476;SDS011;31958;51.756;-2.556;2023-02-21T08:21:20;20.27;;;9.13;;
45476;SDS011;31958;51.756;-2.556;2023-02-21T08:23:46;18.98;;;9.82;;
45476;SDS011;31958;51.756;-2.556;2023-02-21T08:26:11;21.90;;;10.00;;
45476;SDS011;31958;51.756;-2.556;2023-02-21T08:28:36;19.55;;;8.77;;
45476;SDS011;31958;51.756;-2.556;2023-02-21T08:31:02;22.55;;;9.10;;
45476;SDS011;31958;51.756;-2.556;2023-02-21T08:33:28;25.25;;;10.10;;
45476;SDS011;31958;51.756;-2.556;2023-02-21T08:35:53;23.13;;;9.52;;
45476;SDS011;31958;51.756;-2.556;2023-02-21T08:38:19;23.42;;;10.20;;
45476;SDS011;31958;51.756;-2.556;2023-02-21T08:40:45;28.42;;;9.55;;
45476;SDS011;31958;51.756;-2.556;2023-02-21T08:43:11;20.05;;;9.75;;
45476;SDS011;31958;51.756;-2.556;2023-02-21T08:45:36;29.25;;;10.80;;
45476;SDS011;31958;51.756;-2.556;2023-02-21T08:48:02;20.85;;;9.52;;
45476;SDS011;31958;51.756;-2.556;2023-02-21T08:50:28;21.75;;;9.15;;
45476;SDS011;31958;51.756;-2.556;2023-02-21T08:52:53;23.98;;;10.32;;
45476;SDS011;31958;51.756;-2.556;2023-02-21T08:55:19;17.85;;;8.13;;
45476;SDS011;31958;51.756;-2.556;2023-02-21T08:57:49;22.50;;;8.75;;
45476;SDS011;31958;51.756;-2.556;2023-02-21T09:00:17;24.90;;;9.25;;
45476;SDS011;31958;51.756;-2.556;2023-02-21T09:02:43;15.48;;;8.25;;
45476;SDS011;31958;51.756;-2.556;2023-02-21T09:05:13;28.30;;;8.60;;
45476;SDS011;31958;51.756;-2.556;2023-02-21T09:07:47;26.08;;;10.23;;
45476;SDS011;31958;51.756;-2.556;2023-02-21T09:10:13;25.35;;;9.30;;
45476;SDS011;31958;51.756;-2.556;2023-02-21T09:12:38;26.80;;;9.23;;
45476;SDS011;31958;51.756;-2.556;2023-02-21T09:15:04;21.33;;;8.32;;
45476;SDS011;31958;51.756;-2.556;2023-02-21T09:17:30;21.85;;;9.52;;
45476;SDS011;31958;51.756;-2.556;2023-02-21T09:20:02;18.48;;;8.45;;
45476;SDS011;31958;51.756;-2.556;2023-02-21T09:22:29;19.02;;;8.63;;
45476;SDS011;31958;51.756;-2.556;2023-02-21T09:24:55;20.08;;;9.65;;
45476;SDS011;31958;51.756;-2.556;2023-02-21T09:27:21;17.38;;;9.00;;
45476;SDS011;31958;51.756;-2.556;2023-02-21T09:30:01;21.27;;;9.27;;
45476;SDS011;31958;51.756;-2.556;2023-02-21T09:32:28;16.27;;;8.40;;
45476;SDS011;31958;51.756;-2.556;2023-02-21T09:34:53;17.83;;;8.82;;
45476;SDS011;31958;51.756;-2.556;2023-02-21T09:37:19;29.67;;;9.63;;
45476;SDS011;31958;51.756;-2.556;2023-02-21T09:39:44;17.85;;;8.82;;
45476;SDS011;31958;51.756;-2.556;2023-02-21T09:42:12;22.67;;;8.63;;
45476;SDS011;31958;51.756;-2.556;2023-02-21T09:44:39;21.65;;;9.85;;
45476;SDS011;31958;51.756;-2.556;2023-02-21T09:47:06;18.52;;;8.82;;
45476;SDS011;31958;51.756;-2.556;2023-02-21T09:49:32;18.98;;;7.97;;
45476;SDS011;31958;51.756;-2.556;2023-02-21T09:52:00;17.20;;;8.73;;
45476;SDS011;31958;51.756;-2.556;2023-02-21T09:57:00;13.98;;;7.15;;
45476;SDS011;31958;51.756;-2.556;2023-02-21T09:59:26;15.23;;;7.18;;
45476;SDS011;31958;51.756;-2.556;2023-02-21T10:02:02;19.92;;;7.82;;
45476;SDS011;31958;51.756;-2.556;2023-02-21T10:09:58;12.32;;;6.35;;
45476;SDS011;31958;51.756;-2.556;2023-02-21T10:12:33;11.88;;;5.75;;
45476;SDS011;31958;51.756;-2.556;2023-02-21T10:21:00;12.80;;;5.72;;
45476;SDS011;31958;51.756;-2.556;2023-02-21T10:23:46;9.82;;;5.07;;
45476;SDS011;31958;51.756;-2.556;2023-02-21T10:26:21;12.27;;;5.90;;
45476;SDS011;31958;51.756;-2.556;2023-02-21T10:28:49;15.98;;;7.05;;
45476;SDS011;31958;51.756;-2.556;2023-02-21T10:31:29;14.63;;;5.72;;
45476;SDS011;31958;51.756;-2.556;2023-02-21T10:33:56;12.85;;;5.30;;
45476;SDS011;31958;51.756;-2.556;2023-02-21T10:36:24;12.60;;;5.97;;
45476;SDS011;31958;51.756;-2.556;2023-02-21T10:38:54;12.07;;;5.93;;
45476;SDS011;31958;51.756;-2.556;2023-02-21T10:41:24;10.32;;;4.55;;
45476;SDS011;31958;51.756;-2.556;2023-02-21T10:43:55;10.77;;;5.50;;
45476;SDS011;31958;51.756;-2.556;2023-02-21T10:49:45;10.88;;;6.20;;
45476;SDS011;31958;51.756;-2.556;2023-02-21T10:51:47;11.18;;;5.28;;
45476;SDS011;31958;51.756;-2.556;2023-02-21T10:54:30;9.50;;;5.10;;
45476;SDS011;31958;51.756;-2.556;2023-02-21T10:56:56;12.23;;;6.13;;
45476;SDS011;31958;51.756;-2.556;2023-02-21T10:59:24;11.77;;;5.57;;
45476;SDS011;31958;51.756;-2.556;2023-02-21T11:01:51;11.75;;;5.63;;
45476;SDS011;31958;51.756;-2.556;2023-02-21T11:14:42;17.75;;;6.28;;
45476;SDS011;31958;51.756;-2.556;2023-02-21T11:17:14;15.70;;;6.93;;
45476;SDS011;31958;51.756;-2.556;2023-02-21T11:19:54;12.85;;;5.97;;
45476;SDS011;31958;51.756;-2.556;2023-02-21T11:30:29;14.65;;;7.40;;
45476;SDS011;31958;51.756;-2.556;2023-02-21T11:32:56;17.90;;;8.73;;
45476;SDS011;31958;51.756;-2.556;2023-02-21T11:37:53;16.35;;;6.80;;
45476;SDS011;31958;51.756;-2.556;2023-02-21T11:40:22;18.65;;;7.90;;
45476;SDS011;31958;51.756;-2.556;2023-02-21T11:42:49;13.35;;;5.90;;
45476;SDS011;31958;51.756;-2.556;2023-02-21T11:48:00;11.65;;;4.70;;
45476;SDS011;31958;51.756;-2.556;2023-02-21T11:50:28;9.85;;;5.22;;
45476;SDS011;31958;51.756;-2.556;2023-02-21T11:53:23;10.27;;;4.90;;
45476;SDS011;31958;51.756;-2.556;2023-02-21T11:55:54;10.10;;;4.03;;
45476;SDS011;31958;51.756;-2.556;2023-02-21T12:01:35;6.50;;;3.35;;
45476;SDS011;31958;51.756;-2.556;2023-02-21T12:04:57;7.32;;;4.78;;
45476;SDS011;31958;51.756;-2.556;2023-02-21T12:15:07;5.25;;;2.67;;
45476;SDS011;31958;51.756;-2.556;2023-02-21T12:20:39;9.00;;;3.67;;
45476;SDS011;31958;51.756;-2.556;2023-02-21T12:23:21;13.82;;;4.97;;
45476;SDS011;31958;51.756;-2.556;2023-02-21T12:31:22;6.70;;;2.60;;
45476;SDS011;31958;51.756;-2.556;2023-02-21T12:39:26;6.75;;;3.35;;
45476;SDS011;31958;51.756;-2.556;2023-02-21T12:50:00;5.30;;;2.78;;
45476;SDS011;31958;51.756;-2.556;2023-02-21T12:52:28;5.68;;;3.10;;
45476;SDS011;31958;51.756;-2.556;2023-02-21T12:55:21;4.72;;;2.78;;
45476;SDS011;31958;51.756;-2.556;2023-02-21T13:00:26;5.38;;;2.75;;
45476;SDS011;31958;51.756;-2.556;2023-02-21T13:14:31;12.18;;;6.10;;
45476;SDS011;31958;51.756;-2.556;2023-02-21T13:16:58;10.73;;;4.60;;
45476;SDS011;31958;51.756;-2.556;2023-02-21T13:19:24;7.38;;;3.90;;
45476;SDS011;31958;51.756;-2.556;2023-02-21T13:29:58;18.58;;;7.43;;
45476;SDS011;31958;51.756;-2.556;2023-02-21T13:32:28;14.40;;;9.38;;
45476;SDS011;31958;51.756;-2.556;2023-02-21T13:35:03;9.65;;;4.60;;
45476;SDS011;31958;51.756;-2.556;2023-02-21T13:37:31;9.07;;;4.93;;
45476;SDS011;31958;51.756;-2.556;2023-02-21T13:39:59;8.27;;;4.78;;
45476;SDS011;31958;51.756;-2.556;2023-02-21T13:42:32;11.07;;;6.03;;
45476;SDS011;31958;51.756;-2.556;2023-02-21T13:45:18;12.65;;;7.10;;
45476;SDS011;31958;51.756;-2.556;2023-02-21T13:53:08;8.65;;;4.90;;
45476;SDS011;31958;51.756;-2.556;2023-02-21T13:55:37;7.55;;;4.97;;
45476;SDS011;31958;51.756;-2.556;2023-02-21T14:10:57;7.13;;;4.43;;
45476;SDS011;31958;51.756;-2.556;2023-02-21T14:13:33;16.35;;;9.85;;
45476;SDS011;31958;51.756;-2.556;2023-02-21T14:18:32;8.52;;;4.18;;
45476;SDS011;31958;51.756;-2.556;2023-02-21T14:21:21;5.82;;;4.18;;
45476;SDS011;31958;51.756;-2.556;2023-02-21T14:23:49;7.70;;;4.45;;
45476;SDS011;31958;51.756;-2.556;2023-02-21T14:34:12;8.50;;;5.07;;
45476;SDS011;31958;51.756;-2.556;2023-02-21T14:36:39;9.07;;;4.97;;
45476;SDS011;31958;51.756;-2.556;2023-02-21T14:39:05;13.98;;;4.97;;
45476;SDS011;31958;51.756;-2.556;2023-02-21T14:42:18;10.10;;;5.68;;
45476;SDS011;31958;51.756;-2.556;2023-02-21T14:44:27;10.00;;;5.20;;
45476;SDS011;31958;51.756;-2.556;2023-02-21T14:52:38;11.20;;;6.82;;
45476;SDS011;31958;51.756;-2.556;2023-02-21T15:01:23;9.32;;;5.40;;
45476;SDS011;31958;51.756;-2.556;2023-02-21T15:04:02;10.15;;;5.85;;
45476;SDS011;31958;51.756;-2.556;2023-02-21T15:06:34;9.82;;;5.70;;
45476;SDS011;31958;51.756;-2.556;2023-02-21T15:09:09;11.55;;;5.75;;
45476;SDS011;31958;51.756;-2.556;2023-02-21T15:11:42;9.95;;;6.03;;
45476;SDS011;31958;51.756;-2.556;2023-02-21T15:14:22;13.05;;;6.18;;
45476;SDS011;31958;51.756;-2.556;2023-02-21T15:16:51;10.25;;;5.60;;
45476;SDS011;31958;51.756;-2.556;2023-02-21T15:19:28;11.88;;;6.43;;
45476;SDS011;31958;51.756;-2.556;2023-02-21T15:22:05;11.95;;;6.22;;
45476;SDS011;31958;51.756;-2.556;2023-02-21T15:27:21;14.35;;;7.80;;
45476;SDS011;31958;51.756;-2.556;2023-02-21T15:30:00;17.63;;;8.85;;
45476;SDS011;31958;51.756;-2.556;2023-02-21T15:32:28;15.18;;;8.32;;
45476;SDS011;31958;51.756;-2.556;2023-02-21T15:34:54;14.02;;;6.72;;
45476;SDS011;31958;51.756;-2.556;2023-02-21T15:37:21;9.48;;;6.00;;
45476;SDS011;31958;51.756;-2.556;2023-02-21T15:39:50;11.07;;;5.82;;
45476;SDS011;31958;51.756;-2.556;2023-02-21T15:42:18;8.18;;;4.90;;
45476;SDS011;31958;51.756;-2.556;2023-02-21T15:44:45;7.97;;;4.95;;
45476;SDS011;31958;51.756;-2.556;2023-02-21T15:47:15;8.55;;;5.70;;
45476;SDS011;31958;51.756;-2.556;2023-02-21T15:49:51;7.72;;;4.40;;
45476;SDS011;31958;51.756;-2.556;2023-02-21T15:52:27;11.45;;;4.32;;
45476;SDS011;31958;51.756;-2.556;2023-02-21T15:55:13;11.50;;;5.70;;
45476;SDS011;31958;51.756;-2.556;2023-02-21T16:03:24;12.07;;;5.65;;
45476;SDS011;31958;51.756;-2.556;2023-02-21T16:11:24;11.43;;;6.22;;
45476;SDS011;31958;51.756;-2.556;2023-02-21T16:13:51;10.73;;;6.47;;
45476;SDS011;31958;51.756;-2.556;2023-02-21T16:16:16;10.88;;;5.95;;
45476;SDS011;31958;51.756;-2.556;2023-02-21T16:18:42;10.05;;;5.93;;
45476;SDS011;31958;51.756;-2.556;2023-02-21T16:23:52;18.42;;;9.52;;
45476;SDS011;31958;51.756;-2.556;2023-02-21T16:28:52;14.13;;;7.30;;
45476;SDS011;31958;51.756;-2.556;2023-02-21T16:31:24;12.82;;;6.60;;
45476;SDS011;31958;51.756;-2.556;2023-02-21T16:33:54;14.10;;;7.18;;
45476;SDS011;31958;51.756;-2.556;2023-02-21T16:36:24;12.23;;;6.60;;
45476;SDS011;31958;51.756;-2.556;2023-02-21T16:38:52;11.52;;;6.47;;
45476;SDS011;31958;51.756;-2.556;2023-02-21T16:41:19;13.70;;;6.72;;
45476;SDS011;31958;51.756;-2.556;2023-02-21T16:43:45;14.88;;;6.47;;
45476;SDS011;31958;51.756;-2.556;2023-02-21T16:46:10;11.30;;;6.00;;
45476;SDS011;31958;51.756;-2.556;2023-02-21T16:48:36;10.95;;;5.65;;
45476;SDS011;31958;51.756;-2.556;2023-02-21T16:51:04;9.43;;;5.13;;
45476;SDS011;31958;51.756;-2.556;2023-02-21T16:53:31;10.02;;;5.47;;
45476;SDS011;31958;51.756;-2.556;2023-02-21T16:55:58;10.77;;;6.15;;
45476;SDS011;31958;51.756;-2.556;2023-02-21T16:58:28;12.63;;;5.97;;
45476;SDS011;31958;51.756;-2.556;2023-02-21T17:00:57;12.00;;;5.85;;
45476;SDS011;31958;51.756;-2.556;2023-02-21T17:03:25;14.68;;;5.75;;
45476;SDS011;31958;51.756;-2.556;2023-02-21T17:05:52;12.27;;;5.90;;
45476;SDS011;31958;51.756;-2.556;2023-02-21T17:08:18;10.20;;;5.80;;
45476;SDS011;31958;51.756;-2.556;2023-02-21T17:10:44;13.18;;;6.22;;
45476;SDS011;31958;51.756;-2.556;2023-02-21T17:13:09;11.57;;;6.03;;
45476;SDS011;31958;51.756;-2.556;2023-02-21T17:15:35;13.88;;;5.50;;
45476;SDS011;31958;51.756;-2.556;2023-02-21T17:18:00;10.35;;;5.25;;
45476;SDS011;31958;51.756;-2.556;2023-02-21T17:20:26;11.15;;;5.82;;
45476;SDS011;31958;51.756;-2.556;2023-02-21T17:22:52;10.98;;;5.75;;
45476;SDS011;31958;51.756;-2.556;2023-02-21T17:25:19;13.32;;;5.55;;
45476;SDS011;31958;51.756;-2.556;2023-02-21T17:27:45;14.30;;;6.22;;
45476;SDS011;31958;51.756;-2.556;2023-02-21T17:30:11;11.52;;;5.85;;
45476;SDS011;31958;51.756;-2.556;2023-02-21T17:32:37;13.50;;;6.05;;
45476;SDS011;31958;51.756;-2.556;2023-02-21T17:35:03;12.43;;;6.25;;
45476;SDS011;31958;51.756;-2.556;2023-02-21T17:37:29;14.90;;;6.18;;
45476;SDS011;31958;51.756;-2.556;2023-02-21T17:39:54;13.45;;;6.60;;
45476;SDS011;31958;51.756;-2.556;2023-02-21T17:42:21;16.02;;;6.78;;
45476;SDS011;31958;51.756;-2.556;2023-02-21T17:44:47;17.98;;;7.60;;
45476;SDS011;31958;51.756;-2.556;2023-02-21T17:47:14;16.25;;;7.40;;
45476;SDS011;31958;51.756;-2.556;2023-02-21T17:49:40;14.70;;;7.30;;
45476;SDS011;31958;51.756;-2.556;2023-02-21T17:52:05;18.20;;;6.78;;
45476;SDS011;31958;51.756;-2.556;2023-02-21T17:54:30;16.88;;;6.90;;
45476;SDS011;31958;51.756;-2.556;2023-02-21T17:56:56;18.98;;;8.80;;
45476;SDS011;31958;51.756;-2.556;2023-02-21T17:59:21;21.08;;;8.82;;
45476;SDS011;31958;51.756;-2.556;2023-02-21T18:01:47;19.17;;;9.23;;